createdAt,value
2023-04-30T00:02:46.814Z,10.00
2023-04-30T00:06:50.330Z,10.00
2023-04-30T00:10:51.919Z,9.90
2023-04-30T00:14:52.713Z,9.90
2023-04-30T00:18:53.116Z,9.90
2023-04-30T00:22:56.427Z,9.90
2023-04-30T00:26:57.112Z,9.90
2023-04-30T00:30:57.800Z,9.80
2023-04-30T00:34:58.215Z,9.80
2023-04-30T00:39:01.181Z,9.80
2023-04-30T00:43:01.377Z,9.70
2023-04-30T00:47:04.165Z,9.70
2023-04-30T00:51:07.576Z,9.70
2023-04-30T00:55:12.396Z,9.70
2023-04-30T00:59:13.713Z,9.60
2023-04-30T01:03:14.091Z,9.60
2023-04-30T01:07:14.613Z,9.60
2023-04-30T01:11:27.261Z,9.60
2023-04-30T01:15:37.827Z,9.50
2023-04-30T01:19:45.448Z,9.40
2023-04-30T01:24:09.424Z,9.40
2023-04-30T01:28:17.623Z,9.40
2023-04-30T01:32:18.641Z,9.30
2023-04-30T01:36:38.029Z,9.20
2023-04-30T01:40:56.106Z,9.30
2023-04-30T01:45:25.884Z,9.20
2023-04-30T01:49:41.057Z,9.30
2023-04-30T01:53:47.385Z,9.30
2023-04-30T01:57:58.690Z,9.30
2023-04-30T02:02:01.874Z,9.30
2023-04-30T02:06:02.194Z,9.20
2023-04-30T02:10:02.481Z,9.20
2023-04-30T02:14:03.252Z,9.20
2023-04-30T02:18:06.260Z,9.20
2023-04-30T02:22:06.494Z,9.20
2023-04-30T02:26:06.700Z,9.20
2023-04-30T02:30:08.384Z,9.20
2023-04-30T02:34:11.284Z,9.20
2023-04-30T02:38:11.529Z,9.20
2023-04-30T02:42:11.766Z,9.20
2023-04-30T02:46:12.075Z,9.10
2023-04-30T02:50:15.078Z,9.20
2023-04-30T02:54:15.437Z,9.10
2023-04-30T02:58:15.880Z,9.10
2023-04-30T03:02:16.973Z,9.10
2023-04-30T03:06:20.072Z,9.10
2023-04-30T03:10:20.485Z,9.00
2023-04-30T03:14:21.094Z,9.10
2023-04-30T03:18:22.468Z,9.00
2023-04-30T03:22:26.876Z,9.00
2023-04-30T03:26:27.460Z,9.00
2023-04-30T03:30:28.077Z,9.00
2023-04-30T03:34:28.719Z,9.00
2023-04-30T03:38:31.727Z,9.00
2023-04-30T03:42:32.004Z,9.00
2023-04-30T03:46:32.480Z,9.00
2023-04-30T03:50:33.099Z,9.00
2023-04-30T03:54:36.664Z,9.00
2023-04-30T03:58:39.111Z,9.00
2023-04-30T04:02:39.571Z,9.00
2023-04-30T04:06:42.735Z,8.90
2023-04-30T04:10:46.007Z,9.00
2023-04-30T04:14:46.505Z,9.10
2023-04-30T04:18:47.288Z,9.10
2023-04-30T04:22:47.737Z,9.10
2023-04-30T04:26:50.845Z,9.10
2023-04-30T04:30:51.311Z,9.10
2023-04-30T04:34:51.649Z,9.10
2023-04-30T04:38:51.998Z,9.20
2023-04-30T04:42:56.045Z,9.20
2023-04-30T04:46:56.976Z,9.20
2023-04-30T04:50:57.997Z,9.30
2023-04-30T04:54:58.861Z,9.40
2023-04-30T04:59:03.014Z,9.50
2023-04-30T05:03:03.473Z,9.50
2023-04-30T05:07:04.182Z,9.70
2023-04-30T05:11:04.633Z,9.70
2023-04-30T05:15:08.978Z,9.70
2023-04-30T05:19:09.962Z,9.90
2023-04-30T05:23:11.135Z,10.00
2023-04-30T05:27:12.013Z,10.10
2023-04-30T05:31:14.885Z,10.30
2023-04-30T05:35:15.309Z,10.40
2023-04-30T05:39:15.476Z,10.40
2023-04-30T05:43:16.309Z,10.50
2023-04-30T05:47:19.458Z,10.70
2023-04-30T05:51:19.678Z,10.70
2023-04-30T05:55:20.509Z,10.60
2023-04-30T05:59:20.823Z,10.60
2023-04-30T06:03:24.178Z,10.70
2023-04-30T06:07:25.126Z,10.70
2023-04-30T06:11:25.843Z,10.60
2023-04-30T06:15:26.205Z,10.60
2023-04-30T06:19:29.179Z,10.60
2023-04-30T06:23:29.416Z,10.50
2023-04-30T06:27:30.039Z,10.50
2023-04-30T06:31:30.592Z,10.50
2023-04-30T06:35:33.553Z,10.50
2023-04-30T06:39:33.730Z,10.50
2023-04-30T06:43:33.956Z,10.60
2023-04-30T06:47:36.493Z,10.70
2023-04-30T06:51:39.529Z,10.80
2023-04-30T06:55:39.631Z,11.00
2023-04-30T06:59:40.018Z,11.20
2023-04-30T07:03:40.331Z,11.30
2023-04-30T07:07:43.947Z,11.50
2023-04-30T07:11:44.499Z,11.70
2023-04-30T07:15:45.931Z,11.60
2023-04-30T07:19:46.974Z,11.50
2023-04-30T07:23:51.740Z,11.40
2023-04-30T07:27:51.930Z,11.30
2023-04-30T07:31:52.100Z,11.40
2023-04-30T07:35:52.779Z,11.60
2023-04-30T07:39:55.785Z,12.00
2023-04-30T07:43:57.003Z,12.10
2023-04-30T07:47:57.286Z,12.10
2023-04-30T07:51:57.803Z,12.10
2023-04-30T07:56:00.621Z,12.70
2023-04-30T08:00:01.180Z,13.60
2023-04-30T08:04:01.638Z,14.00
2023-04-30T08:08:02.094Z,14.30
2023-04-30T08:12:05.265Z,14.30
2023-04-30T08:16:05.566Z,14.00
2023-04-30T08:20:09.756Z,13.50
2023-04-30T08:24:10.005Z,14.00
2023-04-30T08:28:12.981Z,15.00
2023-04-30T08:32:13.349Z,15.50
2023-04-30T08:36:13.774Z,15.90
2023-04-30T08:40:16.676Z,15.30
2023-04-30T08:44:19.835Z,14.80
2023-04-30T08:48:23.730Z,15.70
2023-04-30T08:52:26.082Z,16.40
2023-04-30T08:56:26.601Z,17.60
2023-04-30T09:00:30.380Z,18.70
2023-04-30T09:04:30.865Z,19.60
2023-04-30T09:08:47.143Z,20.40
2023-04-30T09:13:01.636Z,20.70
2023-04-30T09:17:04.520Z,20.50
2023-04-30T09:21:08.379Z,20.60
2023-04-30T09:25:11.534Z,20.60
2023-04-30T09:29:11.994Z,21.20
2023-04-30T09:33:15.022Z,21.80
2023-04-30T09:37:16.127Z,21.70
2023-04-30T09:41:29.181Z,21.50
2023-04-30T09:45:30.761Z,21.60
2023-04-30T09:49:35.076Z,21.30
2023-04-30T09:53:40.872Z,21.00
2023-04-30T09:57:41.519Z,20.70
2023-04-30T10:01:42.716Z,21.00
2023-04-30T10:05:48.859Z,21.30
2023-04-30T10:09:54.270Z,20.50
2023-04-30T10:14:02.220Z,20.60
2023-04-30T10:18:09.196Z,19.90
2023-04-30T10:22:13.659Z,20.30
2023-04-30T10:26:14.415Z,20.50
2023-04-30T10:30:16.613Z,19.90
2023-04-30T10:34:31.925Z,20.00
2023-04-30T10:38:38.331Z,20.60
2023-04-30T10:42:40.179Z,21.90
2023-04-30T10:46:41.321Z,21.80
2023-04-30T10:50:47.030Z,20.80
2023-04-30T10:54:53.779Z,20.30
2023-04-30T10:58:54.395Z,20.10
2023-04-30T11:03:10.727Z,20.00
2023-04-30T11:07:13.750Z,20.00
2023-04-30T11:11:24.168Z,20.80
2023-04-30T11:15:28.617Z,21.00
2023-04-30T11:19:30.853Z,19.90
2023-04-30T11:23:39.401Z,20.30
2023-04-30T11:27:46.851Z,22.00
2023-04-30T11:31:48.111Z,21.60
2023-04-30T11:35:49.636Z,20.60
2023-04-30T11:39:51.453Z,20.10
2023-04-30T11:43:54.320Z,19.70
2023-04-30T11:47:57.899Z,18.80
2023-04-30T11:51:59.047Z,18.50
2023-04-30T11:55:59.545Z,19.20
2023-04-30T12:00:15.720Z,21.50
2023-04-30T12:04:17.341Z,23.20
2023-04-30T12:08:17.933Z,23.10
2023-04-30T12:12:28.989Z,22.50
2023-04-30T12:16:42.933Z,22.00
2023-04-30T12:20:44.502Z,22.90
2023-04-30T12:24:46.172Z,21.90
2023-04-30T12:28:46.492Z,21.00
2023-04-30T12:32:54.121Z,20.00
2023-04-30T12:36:54.678Z,19.50
2023-04-30T12:40:55.210Z,20.20
2023-04-30T12:44:55.470Z,22.00
2023-04-30T12:49:00.171Z,23.90
2023-04-30T12:53:05.692Z,25.00
2023-04-30T12:57:08.621Z,25.90
2023-04-30T13:01:14.275Z,26.00
2023-04-30T13:05:17.395Z,24.40
2023-04-30T13:09:17.718Z,23.90
2023-04-30T13:13:21.674Z,23.90
2023-04-30T13:17:22.906Z,25.20
2023-04-30T13:21:25.750Z,25.90
2023-04-30T13:25:26.030Z,27.00
2023-04-30T13:29:26.386Z,27.10
2023-04-30T13:33:26.962Z,25.30
2023-04-30T13:37:32.247Z,23.80
2023-04-30T13:41:32.356Z,22.50
2023-04-30T13:45:32.899Z,21.80
2023-04-30T13:49:33.112Z,21.30
2023-04-30T13:53:36.853Z,21.50
2023-04-30T13:57:37.018Z,22.70
2023-04-30T14:01:38.230Z,23.60
2023-04-30T14:05:39.541Z,24.50
2023-04-30T14:09:42.475Z,24.60
2023-04-30T14:13:42.623Z,25.00
2023-04-30T14:17:42.756Z,24.40
2023-04-30T14:21:43.066Z,23.40
2023-04-30T14:25:46.190Z,22.50
2023-04-30T14:29:46.469Z,21.70
2023-04-30T14:33:46.888Z,22.40
2023-04-30T14:37:47.284Z,24.00
2023-04-30T14:41:51.590Z,25.50
2023-04-30T14:45:52.058Z,27.10
2023-04-30T14:49:53.655Z,27.10
2023-04-30T14:53:54.168Z,28.00
2023-04-30T14:57:56.964Z,26.10
2023-04-30T15:01:57.504Z,23.30
2023-04-30T15:05:58.136Z,21.80
2023-04-30T15:09:59.036Z,20.70
2023-04-30T15:14:01.981Z,21.20
2023-04-30T15:18:04.216Z,22.50
2023-04-30T15:22:04.454Z,23.60
2023-04-30T15:26:05.522Z,24.10
2023-04-30T15:30:12.661Z,24.00
2023-04-30T15:34:12.930Z,23.30
2023-04-30T15:38:13.155Z,22.60
2023-04-30T15:42:14.041Z,22.20
2023-04-30T15:46:17.155Z,21.80
2023-04-30T15:50:17.628Z,21.90
2023-04-30T15:54:18.137Z,22.10
2023-04-30T15:58:18.760Z,22.10
2023-04-30T16:02:22.342Z,22.30
2023-04-30T16:06:23.150Z,21.80
2023-04-30T16:10:23.751Z,21.10
2023-04-30T16:14:24.258Z,20.30
2023-04-30T16:18:30.019Z,20.70
2023-04-30T16:22:31.091Z,21.60
2023-04-30T16:26:31.179Z,22.30
2023-04-30T16:30:31.966Z,23.10
2023-04-30T16:34:35.000Z,23.60
2023-04-30T16:38:36.072Z,23.90
2023-04-30T16:42:38.060Z,23.60
2023-04-30T16:46:41.397Z,22.00
2023-04-30T16:50:44.197Z,20.80
2023-04-30T16:54:44.419Z,20.50
2023-04-30T16:58:44.579Z,21.10
2023-04-30T17:02:45.867Z,20.90
2023-04-30T17:06:49.586Z,21.10
2023-04-30T17:10:49.872Z,20.70
2023-04-30T17:14:50.379Z,20.30
2023-04-30T17:18:50.575Z,20.20
2023-04-30T17:22:53.736Z,20.00
2023-04-30T17:26:55.250Z,20.10
2023-04-30T17:30:56.734Z,19.80
2023-04-30T17:34:58.066Z,19.20
2023-04-30T17:39:04.330Z,18.90
2023-04-30T17:43:04.903Z,18.50
2023-04-30T17:47:05.819Z,18.10
2023-04-30T17:51:06.856Z,17.70
2023-04-30T17:55:11.876Z,17.30
2023-04-30T17:59:12.807Z,17.10
2023-04-30T18:03:13.511Z,16.90
2023-04-30T18:07:13.868Z,16.60
2023-04-30T18:11:17.182Z,16.30
2023-04-30T18:15:17.604Z,16.00
2023-04-30T18:19:18.306Z,15.70
2023-04-30T18:23:19.014Z,15.30
2023-04-30T18:27:22.072Z,15.00
2023-04-30T18:31:22.721Z,14.70
2023-04-30T18:35:23.454Z,14.30
2023-04-30T18:39:24.168Z,14.00
2023-04-30T18:43:27.289Z,13.70
2023-04-30T18:47:27.844Z,13.50
2023-04-30T18:51:28.497Z,13.20
2023-04-30T18:55:28.908Z,13.00
2023-04-30T18:59:32.234Z,12.80
2023-04-30T19:03:34.152Z,12.70
2023-04-30T19:07:35.054Z,12.60
2023-04-30T19:11:36.342Z,12.40
2023-04-30T19:15:39.622Z,12.20
2023-04-30T19:19:39.952Z,12.10
2023-04-30T19:23:40.706Z,11.90
2023-04-30T19:27:41.241Z,11.80
2023-04-30T19:31:44.410Z,11.60
2023-04-30T19:35:44.982Z,11.50
2023-04-30T19:39:46.311Z,11.30
2023-04-30T19:43:46.590Z,11.20
2023-04-30T19:47:49.955Z,11.10
2023-04-30T19:51:50.542Z,11.10
2023-04-30T19:55:52.076Z,11.00
2023-04-30T19:59:52.887Z,10.90
2023-04-30T20:03:56.063Z,10.80
2023-04-30T20:07:56.504Z,10.70
2023-04-30T20:11:58.100Z,10.70
2023-04-30T20:15:58.897Z,10.50
2023-04-30T20:20:03.281Z,10.50
2023-04-30T20:24:04.739Z,10.40
2023-04-30T20:28:05.153Z,10.30
2023-04-30T20:32:05.692Z,10.30
2023-04-30T20:36:08.985Z,10.20
2023-04-30T20:40:11.863Z,10.10
2023-04-30T20:44:13.293Z,10.00
2023-04-30T20:48:14.300Z,10.00
2023-04-30T20:52:18.922Z,10.00
2023-04-30T20:56:19.555Z,9.90
2023-04-30T21:00:20.340Z,9.90
2023-04-30T21:04:20.905Z,9.80
2023-04-30T21:08:24.304Z,9.70
2023-04-30T21:12:24.594Z,9.70
2023-04-30T21:16:24.851Z,9.60
2023-04-30T21:20:25.036Z,9.60
2023-04-30T21:24:27.841Z,9.40
2023-04-30T21:28:28.142Z,9.40
2023-04-30T21:32:28.489Z,9.30
2023-04-30T21:36:30.288Z,9.20
2023-04-30T21:40:34.982Z,9.20
2023-04-30T21:44:36.319Z,9.00
2023-04-30T21:48:38.790Z,9.00
2023-04-30T21:52:39.038Z,8.90
2023-04-30T21:56:42.893Z,8.90
2023-04-30T22:00:43.666Z,8.80
2023-04-30T22:04:43.933Z,8.70
2023-04-30T22:08:44.416Z,8.70
2023-04-30T22:12:48.277Z,8.60
2023-04-30T22:16:48.661Z,8.60
2023-04-30T22:20:52.168Z,8.50
2023-04-30T22:24:52.615Z,8.40
2023-04-30T22:28:55.680Z,8.30
2023-04-30T22:32:59.265Z,8.30
2023-04-30T22:36:59.690Z,8.20
2023-04-30T22:41:01.345Z,8.20
2023-04-30T22:45:04.457Z,8.20
2023-04-30T22:49:05.665Z,8.10
2023-04-30T22:53:06.561Z,8.00
2023-04-30T22:57:06.791Z,7.90
2023-04-30T23:01:09.684Z,7.90
2023-04-30T23:05:12.067Z,7.80
2023-04-30T23:09:13.074Z,7.70
2023-04-30T23:13:13.298Z,7.60
2023-04-30T23:17:16.572Z,7.50
2023-04-30T23:21:17.141Z,7.40
2023-04-30T23:25:17.671Z,7.40
2023-04-30T23:29:17.906Z,7.40
2023-04-30T23:33:20.896Z,7.60
2023-04-30T23:37:21.235Z,7.80
2023-04-30T23:41:21.416Z,7.80
2023-04-30T23:45:22.574Z,7.80
2023-04-30T23:49:25.757Z,7.90
2023-04-30T23:53:26.714Z,7.90
2023-04-30T23:57:28.278Z,8.00
